Doon, Iowa
Current Conditions -  °F | °C
As of 5:55 AM on Wednesday 28 Jan 2015 (Local Time) from KSHL Reporting Station
Clear Clear  
Wind Chill: 22°   Ceiling: Unl
Heat Index: 32°   Visibility: 8mi
Dew Point: 32°   Wind: 15mph
Humidity: 100%   Direction: 150°SSE
Pressure: 29.87"   Gusts: 23mph
Location:  43.28°N, 96.23°W
Report Text: KSHL 281155Z AUTO 15013G20KT 8SM CLR M00/M00 A2987 RMK AO2
Loading
Personal Weather Stations






























Interactive Weather Map New forecast layout! Learn more

10-Day Weather Forecast

Advertisements
Track Severe Weather on mobile